Historyczne dane pomiarowe

Dodano dane terminowe – wersja testowa.

Dane z okresu 1951-2019

Wersja bazy: 1.34 [2019-03-16, lista zmian], aktualizacja planowana na 2019-04-15

Dane meteo z obszaru Polski uzyskane na podstawie danych udostępnionych przez Instytut Meteorologii i Gospodarki Wodnej – Państwowy Instytut Badawczy.

 

Wybierz Datę:    

       

TemperaturaWilgotnośćWiatrCiśnienieOpadyŚniegCzas trwania zjawisk
 Stacja t tx tn tng RH VA  wxwx mslp ppp RRR   cm mm wxwxwxwxwxwxwx
1994-08-14 14.2 17.7 11.3 10.4 76.3- 5.3 4.0---- 1.7------------
1994-08-13 18.1 22.6 15.8 14.2 80.0- 6.7 4.3---- 10.8------------
1994-08-12 20.0 24.8 16.1 14.3 71.8- 7.0 1.3---- 0.4------------
1994-08-11 20.1 25.7 13.7 10.3 72.8- 5.0 1.7---- 0.3------------
1994-08-10 20.0 25.4 15.5 14.4 83.5- 5.0 1.0---- 0.0------------
1994-08-09 17.9 21.3 15.8 12.1 95.0- 8.0 1.3---- 15.0------------
1994-08-08 20.9 26.2 18.6 15.2 81.5- 7.0 1.3---- 0.1------------
1994-08-07 24.9 29.3 20.5 18.5 65.0- 3.7 1.7---- 0.6------------
1994-08-06 27.1 34.0 18.6 13.0 48.5- 0.3 1.3---- 0.0------------
1994-08-05 25.9 32.3 19.0 14.3 65.5- 1.3 1.0---- 0.0------------
1994-08-04 23.8 30.5 18.2 14.9 74.3- 3.0 1.3---- 0.0------------
1994-08-03 24.2 29.4 20.6 16.6 72.5- 4.7 1.7---- 3.5------------
1994-08-02 28.0 34.2 23.2 19.1 60.8- 3.3 1.3---- 0.0------------
1994-08-01 28.7 36.8 20.0 15.0 54.8- 4.0 0.7---- 0.4------------
1994-07-31 28.0 36.1 20.0 14.9 53.8- 2.7 1.0---- 0.0------------
1994-07-30 28.2 36.2 19.3 13.4 49.5- 0.3 1.3---- 0.0------------
1994-07-29 27.2 35.3 18.0 12.5 49.3- 0.3 1.3---- 0.0------------
1994-07-28 26.7 34.5 17.9 12.1 51.8- 0.0 1.0---- 0.0------------
1994-07-27 25.7 34.3 16.1 10.9 54.3- 0.7 1.0---- 0.0------------
1994-07-26 25.5 32.8 17.3 11.8 53.3- 0.3 1.3---- 0.0------------
1994-07-25 25.0 32.0 15.8 10.9 52.0- 1.0 0.7---- 0.0------------
1994-07-24 23.9 31.0 15.1 10.4 57.8- 0.7 1.0---- 0.0------------
1994-07-23 22.8 28.6 14.4 9.9 62.8- 3.0 0.7---- 0.0------------
1994-07-22 21.1 26.8 13.5 9.5 61.0- 1.7 1.0---- 0.0------------
1994-07-21 21.9 28.3 12.3 8.3 62.0- 1.0 1.3---- 0.0------------
1994-07-20 18.8 24.7 11.9 8.8 63.5- 1.0 1.3---- 0.0------------
1994-07-19 18.8 23.6 13.0 11.5 61.3- 2.3 1.3---- 0.0------------
1994-07-18 20.4 24.6 15.1 14.3 77.3- 5.7 2.0---- 0.0------------
1994-07-17 22.8 27.4 17.6 15.8 69.0- 5.3 1.7---- 12.3------------
1994-07-16 24.6 31.1 16.9 12.2 60.8- 2.3 1.0---- 0.0------------
1994-07-15 25.8 30.9 18.9 14.6 55.8- 1.0 1.7---- 0.0------------
1994-07-14 26.2 31.4 19.6 15.9 58.8- 3.0 2.0---- 0.0------------
1994-07-13 25.3 31.7 16.1 11.8 57.8- 1.7 2.0---- 0.0------------
1994-07-12 24.3 30.0 16.0 11.9 65.5- 0.7 2.0---- 0.0------------
1994-07-11 22.0 28.3 15.8 12.8 67.5- 2.7 2.3---- 0.0------------
1994-07-10 19.5 25.8 12.6 11.5 73.5- 2.0 1.3---- 0.2------------
1994-07-09 14.0 15.5 12.5 12.0 94.0- 7.7 2.0---- 10.3------------
1994-07-08 15.8 24.8 14.7 10.0 81.5- 6.7 2.0---- 20.8------------
1994-07-07 20.6 27.8 11.5 7.1 55.8- 2.0 1.0---- 1.2------------
1994-07-06 20.8 26.4 11.8 6.8 56.5- 3.3 0.7---- 0.0------------
1994-07-05 20.2 25.2 13.2 8.9 55.5- 3.0 1.7---- 0.0------------
1994-07-04 20.9 27.1 11.7 6.6 57.8- 0.3 1.3---- 0.0------------
1994-07-03 19.3 25.9 10.3 4.9 54.3- 1.0 1.3---- 0.0------------
1994-07-02 18.7 24.8 10.1 4.6 59.0- 0.0 1.7---- 0.0------------
1994-07-01 18.6 23.8 12.2 6.8 62.0- 3.7 2.0---- 0.0------------
1994-06-30 22.1 28.8 20.5 17.3 73.8- 6.0 2.3---- 0.0------------
1994-06-29 25.4 31.6 17.0 12.3 61.3- 0.0 1.7---- 1.6------------
1994-06-28 23.6 28.8 16.0 12.9 62.8- 0.0 0.7---- 0.0------------
1994-06-27 24.9 30.3 19.2 14.3 63.5- 0.7 2.0---- 0.0------------
1994-06-26 22.5 30.3 11.7 5.8 55.3- 0.7 1.7---- 0.0------------
1994-06-25 16.7 23.3 8.2 2.2 58.8- 0.0 1.3---- 0.0------------
1994-06-24 14.8 19.0 8.4 6.3 55.5- 3.3 4.0---- 0.0------------
1994-06-23 17.0 23.1 13.8 13.1 49.3- 2.7 5.3---- 0.0------------
1994-06-22 18.8 24.8 12.5 6.5 66.3- 6.0 3.0---- 0.0------------
1994-06-21 15.7 21.2 8.7 3.4 65.5- 3.7 1.3---- 0.0------------
1994-06-20 16.1 18.3 14.3 12.9 63.8- 3.7 4.0---- 0.0------------
1994-06-19 15.3 18.5 12.0 11.5 82.0- 7.7 2.7---- 0.7------------
1994-06-18 13.0 18.3 6.3 1.8 66.0- 4.7 2.3---- 1.6------------
1994-06-17 11.4 15.0 8.7 8.3 74.3- 3.3 2.7---- 0.1------------
1994-06-16 11.5 15.7 9.7 3.8 73.0- 7.7 2.7---- 2.1------------
270.3 ms

 

Źródłem pochodzenia danych jest Instytut Meteorologii i Gospodarki Wodnej – Państwowy Instytut Badawczy. Dane Instytutu Meteorologii i Gospodarki Wodnej – Państwowego Instytutu Badawczego zostały przetworzone.

Dane źródłowe można odnaleźć na stronie https://dane.imgw.pl